Early Branch, SC

4:58 AM EST on February 10, 2016 (GMT -0500)
Beavers Crossing | | Change Station
CLOSE
Current Station
Personal Weather Station
Location: Ridgeland, SC
Elevation: 108 ft
Nearby Weather Stations
Active Advisory: Flood Warning

Elev 108 ft 32.64 °N, 81.01 °W | Updated 12 minutes ago

Clear
Clear
28.8 °F
Feels Like 29 °F
N
2.2
Wind Variable Wind from West

Today
High -- | Low -- °F
--% Chance of Precip.
Yesterday
High -- | Low -- °F
Precip. -- in
Pressure 30.04 in
Visibility 10.0 miles
Clouds Clear
Windchill 29 °F
Dew Point 20 °F
Humidity 69%
Rainfall 0.00 in
Snow Depth Not available.
7:12 AM 6:04 PM
Waxing Crescent, 4% visible
METAR KNBC 100956Z AUTO 27008KT 10SM CLR 00/M07 A3003 RMK AO2 SLP170 T00001072
Pressure 30.04 in
Visibility 10.0 miles
Clouds Clear
Windchill 29 °F
Dew Point 20 °F
Humidity 69%
Rainfall 0.00 in
Snow Depth Not available.
7:12 AM 6:04 PM
Waxing Crescent, 4% visible
METAR KNBC 100956Z AUTO 27008KT 10SM CLR 00/M07 A3003 RMK AO2 SLP170 T00001072

10-Day Weather Forecast

Almanac

Astronomy

Feb. 10, 2016 Rise Set
Actual Time
Civil Twilight
Nautical Twilight
Astronomical Twilight
Moon
Length of Visible Light
Length of Day
Tomorrow will be .
, % of the Moon is Illuminated

Today's Extremes

State Highs State Lows

Community

WunderPhotos

Upload Photos

1,891,826 photos uploaded!

WunderBlog® & News

Nearby

Air Quality

  Air Quality AQ Index Pollutant
Not available.

Snow Depth

Station Depth Elevation

Earthquake Activity

City Distance Mag. Time & Date
Minimum magnitude displayed is 2.5.

Coastal Water Temperatures

Place Temperature

Stations

Nearby Weather Stations

Station Location Temp. Windchill Dew Point Humidity Wind Precip. Elev Updated Type
                   

Watches & Warnings

Flood Warning
Issued: 8:30 PM EST Feb. 9, 2016 – National Weather Service

The Flood Warning continues for
the Savannah River near Clyo.
* At 8 PM Tuesday the stage was 15.4 feet.
* Flood stage is 11.0 feet.
* Moderate flooding is occurring.
* Forecast, the river will slowly fall.
* At 14.5 feet, the bottom floor of several riverfront homes along Tom
goethe Road begins to flood.


Lat... Lon 3273 8145 3276 8137 3264 8136 3249 8117
          3246 8125 3261 8144